Rye, New Hampshire
Current Conditions -  °F | °C
As of 12:28 AM on Friday 28 Nov 2014 (Local Time) from KPSM Reporting Station
Light Snow Light Snow  
Wind Chill: 21°   Ceiling: 3000
Heat Index: 30°   Visibility: 7mi
Dew Point: 23°   Wind: 12mph
Humidity: 75%   Direction: 360°N
Pressure: 29.99"   Gusts: NA
Location:  43.01°N, 70.77°W
Report Text: KPSM 280528Z 36010KT 7SM -SN FEW015 BKN030 OVC035 M01/M05 A2999 RMK AO2A
Loading
Personal Weather Stations






























Interactive Weather Map New forecast layout! Learn more

10-Day Weather Forecast

Advertisements
Track Severe Weather on mobile